Time;durP1;ratioP1;P1;durP2;ratioP2;P2;SDS_P1;SDS_P2;PMS_P1;PMS_P2;Temp;Humidity;BMP_temperature;BMP_pressure;BME280_temperature;BME280_humidity;BME280_pressure;Samples;Min_cycle;Max_cycle;Signal;HPM_P1;HPM_P2
2023/03/03 00:02:16;;;;;;;125.72;41.47;;;;;;;1.28;100.00;100875.41;4975575;28;20381;-85
2023/03/03 00:04:42;;;;;;;143.85;43.05;;;;;;;1.28;100.00;100881.03;4976292;28;20031;-85
2023/03/03 00:07:07;;;;;;;127.10;40.72;;;;;;;1.28;100.00;100878.22;4973092;28;20034;-83
2023/03/03 00:09:32;;;;;;;114.60;41.13;;;;;;;1.25;100.00;100878.25;4974248;28;20034;-85
2023/03/03 00:12:00;;;;;;;131.57;41.53;;;;;;;1.25;100.00;100881.88;4977811;28;20046;-82
2023/03/03 00:14:31;;;;;;;129.70;40.33;;;;;;;1.25;100.00;100881.09;4985672;28;20026;-81
2023/03/03 00:16:57;;;;;;;115.72;39.10;;;;;;;1.14;100.00;100875.53;4984548;28;20035;-83
2023/03/03 00:19:23;;;;;;;121.00;40.90;;;;;;;1.24;100.00;100893.53;4985308;28;20031;-81
2023/03/03 00:21:50;;;;;;;123.28;41.60;;;;;;;1.25;100.00;100889.53;4988844;28;20067;-80
2023/03/03 00:24:15;;;;;;;111.25;37.90;;;;;;;1.27;100.00;100893.50;4993276;28;20054;-82
2023/03/03 00:26:44;;;;;;;98.60;36.78;;;;;;;1.24;100.00;100887.91;4989000;28;20428;-81
2023/03/03 00:29:35;;;;;;;111.85;37.22;;;;;;;1.24;100.00;100896.38;4976242;28;20472;-82
2023/03/03 00:32:19;;;;;;;122.35;40.33;;;;;;;1.21;100.00;100912.03;4959251;28;20031;-82
2023/03/03 00:34:45;;;;;;;112.55;36.95;;;;;;;1.21;100.00;100897.16;4982066;28;20038;-83
2023/03/03 00:37:29;;;;;;;105.65;36.20;;;;;;;1.21;100.00;100900.78;4979387;28;20038;-82
2023/03/03 00:40:10;;;;;;;100.53;35.67;;;;;;;1.22;100.00;100887.53;4974106;28;20039;-85
2023/03/03 00:42:36;;;;;;;112.40;37.60;;;;;;;1.15;100.00;100885.59;4973372;28;20030;-85
2023/03/03 00:45:35;;;;;;;103.25;36.53;;;;;;;1.14;100.00;100872.72;4975866;28;20025;-86
2023/03/03 00:48:16;;;;;;;117.57;36.60;;;;;;;1.16;100.00;100875.13;4975280;28;20038;-86
2023/03/03 00:50:42;;;;;;;116.03;39.97;;;;;;;1.04;100.00;100860.34;4975942;28;20461;-87
2023/03/03 00:53:13;;;;;;;112.28;37.88;;;;;;;1.12;100.00;100874.34;4975102;28;20469;-86
2023/03/03 00:55:39;;;;;;;120.20;37.30;;;;;;;1.13;100.00;100884.38;4974839;28;20182;-85
2023/03/03 00:58:05;;;;;;;110.72;38.60;;;;;;;1.11;100.00;100865.09;4974349;28;20026;-86
2023/03/03 01:00:31;;;;;;;116.18;39.65;;;;;;;1.11;100.00;100853.84;4974395;28;20033;-87
2023/03/03 01:02:59;;;;;;;113.82;38.65;;;;;;;1.14;100.00;100869.91;4973602;28;20358;-85
2023/03/03 01:05:24;;;;;;;102.18;34.38;;;;;;;1.16;100.00;100861.06;4973101;28;20031;-86
2023/03/03 01:07:50;;;;;;;111.90;34.17;;;;;;;1.16;100.00;100873.09;4973974;28;20374;-84
2023/03/03 01:10:15;;;;;;;116.72;36.35;;;;;;;1.18;100.00;100867.06;4974959;28;20026;-86
2023/03/03 01:12:41;;;;;;;107.25;35.30;;;;;;;1.14;100.00;100861.47;4974330;28;20029;-84
2023/03/03 01:15:08;;;;;;;89.07;31.20;;;;;;;1.15;100.00;100865.09;4973299;28;20114;-82
2023/03/03 01:17:33;;;;;;;99.10;33.28;;;;;;;1.08;100.00;100865.94;4973261;28;20146;-86
2023/03/03 01:19:59;;;;;;;97.88;35.30;;;;;;;1.01;100.00;100854.72;4974448;28;20524;-84
2023/03/03 01:22:25;;;;;;;99.95;34.90;;;;;;;1.06;100.00;100873.19;4974684;28;20042;-85
2023/03/03 01:24:50;;;;;;;95.22;32.95;;;;;;;1.06;100.00;100864.75;4974051;28;20377;-86
2023/03/03 01:27:15;;;;;;;98.22;34.75;;;;;;;1.00;100.00;100851.13;4974416;28;20077;-84
2023/03/03 01:29:41;;;;;;;91.32;33.13;;;;;;;1.02;100.00;100850.69;4972847;28;20133;-85
2023/03/03 01:32:06;;;;;;;89.50;30.65;;;;;;;1.03;100.00;100847.47;4956544;28;20038;-86
2023/03/03 01:34:32;;;;;;;90.40;30.23;;;;;;;0.86;100.00;100811.06;4973983;28;20027;-85
2023/03/03 01:36:59;;;;;;;86.78;29.42;;;;;;;0.91;100.00;100824.69;4972429;28;20105;-85
2023/03/03 01:39:25;;;;;;;85.78;32.17;;;;;;;1.00;100.00;100836.25;4974310;28;20026;-84
2023/03/03 01:41:50;;;;;;;84.07;29.30;;;;;;;0.95;100.00;100839.50;4973846;28;20057;-86
2023/03/03 01:44:16;;;;;;;80.60;27.98;;;;;;;0.89;100.00;100836.34;4973946;28;20027;-86
2023/03/03 01:46:47;;;;;;;90.68;29.17;;;;;;;0.84;100.00;100833.16;4974137;28;20027;-85
2023/03/03 01:49:18;;;;;;;78.38;29.52;;;;;;;0.75;100.00;100819.56;4974198;28;20481;-85
2023/03/03 01:52:30;;;;;;;90.30;30.05;;;;;;;0.77;100.00;100830.38;4974207;28;20055;-85
2023/03/03 01:55:02;;;;;;;79.80;28.23;;;;;;;0.77;100.00;100827.56;4953911;28;20390;-86
2023/03/03 01:57:35;;;;;;;79.93;29.25;;;;;;;0.73;100.00;100826.81;4972430;28;20044;-84
2023/03/03 02:00:03;;;;;;;74.40;27.73;;;;;;;0.74;100.00;100826.41;4974040;28;20361;-85
2023/03/03 02:02:28;;;;;;;101.50;29.65;;;;;;;0.49;100.00;100778.78;4972283;28;20039;-85
2023/03/03 02:04:54;;;;;;;84.03;28.75;;;;;;;0.74;100.00;100814.34;4971207;28;20263;-84
2023/03/03 02:07:21;;;;;;;76.72;28.42;;;;;;;0.74;100.00;100822.78;4971286;28;20035;-83
2023/03/03 02:09:49;;;;;;;80.47;28.35;;;;;;;0.73;100.00;100816.38;4970592;28;20053;-84
2023/03/03 02:12:16;;;;;;;81.07;30.15;;;;;;;0.61;100.00;100812.03;4971893;28;20211;-85
2023/03/03 02:14:42;;;;;;;80.32;30.17;;;;;;;0.67;100.00;100809.56;4970317;28;20480;-82
2023/03/03 02:17:07;;;;;;;73.35;27.00;;;;;;;0.71;100.00;100818.81;4974897;28;20113;-86
2023/03/03 02:19:51;;;;;;;72.63;26.98;;;;;;;0.72;100.00;100822.41;4982554;28;20054;-83
2023/03/03 02:22:21;;;;;;;74.53;27.15;;;;;;;0.67;100.00;100811.59;4959805;28;20038;-86
2023/03/03 02:24:50;;;;;;;74.00;25.83;;;;;;;0.56;100.00;100790.00;4975103;28;20034;-81
2023/03/03 02:27:16;;;;;;;71.18;26.60;;;;;;;0.64;100.00;100801.16;4973961;28;20037;-83
2023/03/03 02:29:41;;;;;;;63.55;26.77;;;;;;;0.55;100.00;100791.19;4973502;28;20526;-83
2023/03/03 02:32:07;;;;;;;63.47;26.25;;;;;;;0.63;100.00;100796.75;4975250;28;20528;-83
2023/03/03 02:34:49;;;;;;;61.40;25.60;;;;;;;0.68;100.00;100799.94;4974663;28;20074;-82
2023/03/03 02:37:15;;;;;;;67.53;24.67;;;;;;;0.60;100.00;100812.44;4957351;28;20045;-84
2023/03/03 02:39:42;;;;;;;65.78;25.33;;;;;;;0.51;100.00;100809.31;4974164;28;20027;-86
2023/03/03 02:42:07;;;;;;;61.90;25.80;;;;;;;0.51;100.00;100812.13;4976991;28;20031;-85
2023/03/03 02:44:33;;;;;;;74.43;26.77;;;;;;;0.45;100.00;100811.75;4976901;28;20027;-85
2023/03/03 02:46:59;;;;;;;63.85;25.92;;;;;;;0.42;100.00;100811.75;4975773;28;20023;-84
2023/03/03 02:49:31;;;;;;;73.95;26.30;;;;;;;0.33;100.00;100795.34;4977190;28;20027;-86
2023/03/03 02:51:56;;;;;;;;;;;;;;;0.39;100.00;100809.78;4959915;28;20167;-86
2023/03/03 02:54:23;;;;;;;69.20;25.80;;;;;;;0.45;100.00;100819.38;4959263;28;19960;-87
2023/03/03 02:56:49;;;;;;;67.55;25.25;;;;;;;0.43;100.00;100828.22;4976739;28;20077;-86
2023/03/03 02:59:15;;;;;;;69.43;25.73;;;;;;;0.44;100.00;100835.44;4976427;28;20396;-85
2023/03/03 03:01:41;;;;;;;67.38;24.55;;;;;;;0.39;100.00;100830.25;4977145;28;20054;-86
2023/03/03 03:04:10;;;;;;;73.75;26.33;;;;;;;0.39;100.00;100846.31;4975044;28;20019;-85
2023/03/03 03:06:35;;;;;;;69.55;27.13;;;;;;;0.31;100.00;100848.38;4976407;28;20098;-86
2023/03/03 03:09:01;;;;;;;71.22;27.73;;;;;;;0.30;100.00;100848.78;4976545;28;20453;-85
2023/03/03 03:11:26;;;;;;;69.53;28.20;;;;;;;0.30;100.00;100855.19;4976602;28;20033;-85
2023/03/03 03:13:51;;;;;;;77.78;27.23;;;;;;;0.29;100.00;100849.97;4976378;28;20049;-85
2023/03/03 03:16:17;;;;;;;69.93;26.05;;;;;;;0.27;100.00;100849.59;4976625;28;20042;-85
2023/03/03 03:18:43;;;;;;;67.20;26.42;;;;;;;0.31;100.00;100850.38;4976370;28;20452;-83
2023/03/03 03:21:11;;;;;;;72.47;28.27;;;;;;;0.34;100.00;100852.34;4974757;28;20034;-85
2023/03/03 03:23:37;;;;;;;64.18;26.65;;;;;;;0.32;100.00;100847.13;4976260;28;20019;-86
2023/03/03 03:26:03;;;;;;;76.65;28.83;;;;;;;0.31;100.00;100845.56;4976520;28;20354;-85
2023/03/03 03:28:28;;;;;;;70.93;28.90;;;;;;;0.17;100.00;100832.38;4976006;28;20030;-81
2023/03/03 03:30:54;;;;;;;69.40;26.35;;;;;;;0.13;100.00;100823.16;4957684;28;20362;-85
2023/03/03 03:33:19;;;;;;;70.35;27.75;;;;;;;0.17;100.00;100817.53;4976558;28;20022;-86
2023/03/03 03:35:46;;;;;;;76.55;27.83;;;;;;;0.18;100.00;100811.50;4975485;28;20448;-84
2023/03/03 03:38:12;;;;;;;74.65;27.45;;;;;;;0.16;100.00;100799.88;4975936;28;20050;-86
2023/03/03 03:40:38;;;;;;;73.00;28.75;;;;;;;0.24;100.00;100808.25;4982492;28;20027;-86
2023/03/03 03:43:04;;;;;;;70.28;26.83;;;;;;;0.30;100.00;100823.47;4988587;28;20057;-82
2023/03/03 03:45:29;;;;;;;75.53;28.42;;;;;;;0.35;100.00;100817.44;4981824;28;20332;-84
2023/03/03 03:47:55;;;;;;;64.85;27.98;;;;;;;0.40;100.00;100811.38;4975340;28;20034;-85
2023/03/03 03:50:20;;;;;;;71.30;26.98;;;;;;;0.43;100.00;100819.78;4975666;28;20476;-86
2023/03/03 03:52:46;;;;;;;75.97;27.65;;;;;;;0.37;100.00;100815.78;4975550;28;20079;-86
2023/03/03 03:55:12;;;;;;;68.07;26.63;;;;;;;0.35;100.00;100823.84;4975584;28;20110;-86
2023/03/03 03:57:37;;;;;;;68.25;28.00;;;;;;;0.34;100.00;100827.88;4975141;28;20579;-84
2023/03/03 04:00:07;;;;;;;72.03;25.50;;;;;;;0.30;100.00;100829.09;4975132;28;20039;-84
2023/03/03 04:02:33;;;;;;;75.95;26.75;;;;;;;0.28;100.00;100839.94;4975552;28;20027;-85
2023/03/03 04:04:59;;;;;;;70.22;27.40;;;;;;;0.22;100.00;100831.13;4975079;28;20393;-85
2023/03/03 04:07:24;;;;;;;65.43;26.75;;;;;;;0.35;100.00;100837.09;4957657;28;20037;-85
2023/03/03 04:09:49;;;;;;;75.75;28.52;;;;;;;0.33;100.00;100833.88;4975081;28;20034;-84
2023/03/03 04:12:15;;;;;;;62.30;25.30;;;;;;;0.28;100.00;100839.94;4975210;28;20030;-84
2023/03/03 04:14:40;;;;;;;69.28;26.73;;;;;;;0.24;100.00;100845.59;4975231;28;20035;-85
2023/03/03 04:17:06;;;;;;;71.90;28.30;;;;;;;0.23;100.00;100849.59;4975249;28;20026;-85
2023/03/03 04:19:31;;;;;;;65.00;26.65;;;;;;;0.22;100.00;100848.00;4975288;28;20031;-86
2023/03/03 04:21:56;;;;;;;67.47;25.90;;;;;;;0.01;100.00;100820.81;4975124;28;20465;-85
2023/03/03 04:24:22;;;;;;;73.00;27.83;;;;;;;0.17;100.00;100851.25;4977324;28;20082;-84
2023/03/03 04:26:47;;;;;;;73.65;26.83;;;;;;;0.12;100.00;100848.88;4978050;28;20436;-84
2023/03/03 04:29:12;;;;;;;80.50;28.63;;;;;;;0.14;100.00;100857.66;4993912;28;20038;-85
2023/03/03 04:31:38;;;;;;;67.18;26.40;;;;;;;0.09;100.00;100849.66;4978442;28;20058;-84
2023/03/03 04:34:04;;;;;;;72.63;25.15;;;;;;;0.15;100.00;100864.91;4979581;28;20453;-84
2023/03/03 04:36:30;;;;;;;63.30;25.38;;;;;;;0.13;100.00;100862.50;4985024;28;20057;-85
2023/03/03 04:38:55;;;;;;;64.30;25.83;;;;;;;0.15;100.00;100862.91;4978285;28;20050;-86
2023/03/03 04:41:22;;;;;;;65.70;24.80;;;;;;;0.06;100.00;100845.69;4974502;28;20042;-85
2023/03/03 04:43:47;;;;;;;56.20;22.92;;;;;;;0.07;100.00;100855.69;4973384;28;20034;-83
2023/03/03 04:46:12;;;;;;;65.00;24.80;;;;;;;0.07;100.00;100866.91;4972676;28;20038;-85
2023/03/03 04:48:39;;;;;;;59.22;21.77;;;;;;;0.09;100.00;100869.34;4974550;28;20026;-85
2023/03/03 04:51:05;;;;;;;58.28;21.85;;;;;;;0.10;100.00;100879.38;4973475;28;20035;-84
2023/03/03 04:53:39;;;;;;;59.88;22.52;;;;;;;0.13;100.00;100875.72;4974482;28;20030;-85
2023/03/03 04:56:07;;;;;;;64.63;22.05;;;;;;;0.13;100.00;100870.13;4973538;28;20030;-84
2023/03/03 04:58:34;;;;;;;54.50;22.10;;;;;;;0.15;100.00;100873.31;4973134;28;20086;-86
2023/03/03 05:01:00;;;;;;;57.00;22.33;;;;;;;0.16;100.00;100872.94;4974236;28;20031;-85
2023/03/03 05:03:27;;;;;;;63.33;22.52;;;;;;;0.18;100.00;100866.88;4973820;28;20133;-85
2023/03/03 05:05:54;;;;;;;47.17;20.15;;;;;;;0.22;100.00;100866.88;4957033;28;20069;-85
2023/03/03 05:08:19;;;;;;;55.83;21.50;;;;;;;0.24;100.00;100861.66;4973207;28;20125;-85
2023/03/03 05:10:47;;;;;;;57.42;23.23;;;;;;;0.27;100.00;100861.63;4957031;28;20122;-84
2023/03/03 05:13:15;;;;;;;53.60;22.20;;;;;;;0.28;100.00;100870.84;4973143;28;20101;-86
2023/03/03 05:15:42;;;;;;;45.05;19.38;;;;;;;0.35;100.00;100866.00;4974481;28;20049;-86
2023/03/03 05:18:07;;;;;;;57.00;22.38;;;;;;;0.35;100.00;100868.81;4974514;28;20023;-85
2023/03/03 05:20:34;;;;;;;49.90;21.35;;;;;;;0.29;100.00;100856.41;4956879;28;20396;-84
2023/03/03 05:23:00;;;;;;;54.38;21.00;;;;;;;0.24;100.00;100854.00;4973481;28;20097;-85
2023/03/03 05:25:27;;;;;;;50.33;19.13;;;;;;;0.28;100.00;100856.81;4974043;28;20395;-84
2023/03/03 05:27:54;;;;;;;41.80;18.20;;;;;;;0.22;100.00;100847.22;4974403;28;20030;-85
2023/03/03 05:30:20;;;;;;;47.47;19.92;;;;;;;0.15;100.00;100848.84;4974665;28;20061;-84
2023/03/03 05:32:47;;;;;;;46.28;18.38;;;;;;;0.13;100.00;100856.88;4975591;28;20058;-84
2023/03/03 05:35:14;;;;;;;51.53;19.58;;;;;;;0.15;100.00;100868.50;4973237;28;20078;-82
2023/03/03 05:37:45;;;;;;;49.38;18.08;;;;;;;0.14;100.00;100866.91;4957337;28;20031;-81
2023/03/03 05:40:11;;;;;;;46.38;19.65;;;;;;;0.17;100.00;100854.84;4973838;28;20114;-82
2023/03/03 05:42:38;;;;;;;47.15;17.42;;;;;;;0.13;100.00;100858.88;4973716;28;20083;-75
2023/03/03 05:45:04;;;;;;;44.50;17.45;;;;;;;0.22;100.00;100856.41;4973720;28;20042;-77
2023/03/03 05:47:30;;;;;;;41.08;15.88;;;;;;;0.15;100.00;100850.84;4972640;28;20177;-77
2023/03/03 05:49:56;;;;;;;37.20;15.60;;;;;;;0.15;100.00;100860.09;4972331;28;20038;-78
2023/03/03 05:52:23;;;;;;;41.45;15.50;;;;;;;0.17;100.00;100854.84;4973603;28;20034;-75
2023/03/03 05:54:49;;;;;;;35.80;14.93;;;;;;;0.24;100.00;100856.03;4960614;28;20370;-75
2023/03/03 05:57:16;;;;;;;35.95;15.38;;;;;;;0.16;100.00;100858.88;4977969;28;20034;-83
2023/03/03 05:59:42;;;;;;;33.58;12.73;;;;;;;0.16;100.00;100860.88;4976984;28;20089;-81
2023/03/03 06:02:07;;;;;;;26.13;10.93;;;;;;;0.12;100.00;100862.91;4959695;28;20130;-77
2023/03/03 06:04:34;;;;;;;25.80;11.27;;;;;;;0.09;100.00;100872.13;4976674;28;20073;-77
2023/03/03 06:07:02;;;;;;;30.13;11.25;;;;;;;0.08;100.00;100879.75;4977813;28;20085;-78
2023/03/03 06:09:30;;;;;;;34.10;12.57;;;;;;;-0.01;100.00;100858.94;4960413;28;20034;-77
2023/03/03 06:11:55;;;;;;;29.95;12.18;;;;;;;0.07;100.00;100872.53;4977328;28;20118;-76
2023/03/03 06:14:22;;;;;;;33.97;12.82;;;;;;;-0.06;100.00;100848.94;4976636;28;20130;-78
2023/03/03 06:16:48;;;;;;;36.28;14.52;;;;;;;0.08;100.00;100868.53;4959664;28;20026;-77
2023/03/03 06:19:35;;;;;;;37.70;14.65;;;;;;;0.23;100.00;100879.72;4977058;28;20025;-77
2023/03/03 06:22:07;;;;;;;39.20;13.75;;;;;;;0.24;100.00;100876.50;4991861;28;20026;-78
2023/03/03 06:24:33;;;;;;;30.58;13.23;;;;;;;0.25;100.00;100878.09;4977208;28;20019;-81
2023/03/03 06:27:00;;;;;;;28.95;13.52;;;;;;;0.19;100.00;100865.69;4978855;28;20067;-80
2023/03/03 06:29:28;;;;;;;31.33;12.65;;;;;;;0.20;100.00;100878.53;4976345;28;20377;-84
2023/03/03 06:31:53;;;;;;;31.63;13.05;;;;;;;0.18;100.00;100889.34;4961608;28;20392;-82
2023/03/03 06:34:19;;;;;;;28.50;10.98;;;;;;;0.22;100.00;100898.56;4977318;28;20047;-84
2023/03/03 06:36:44;;;;;;;30.27;12.32;;;;;;;0.21;100.00;100916.66;4976847;28;20046;-84
2023/03/03 06:39:10;;;;;;;30.25;12.25;;;;;;;0.19;100.00;100913.44;4976612;28;20384;-84
2023/03/03 06:41:36;;;;;;;24.20;10.57;;;;;;;0.20;100.00;100911.44;4974437;28;20110;-83
2023/03/03 06:44:01;;;;;;;28.58;13.00;;;;;;;-0.12;100.00;100858.97;4974742;28;20026;-85
2023/03/03 06:46:27;;;;;;;28.70;12.20;;;;;;;0.13;100.00;100892.59;4973385;28;20088;-84
2023/03/03 06:48:53;;;;;;;31.13;11.98;;;;;;;0.13;100.00;100875.72;4975039;28;20034;-83
2023/03/03 06:51:27;;;;;;;27.92;12.55;;;;;;;0.17;100.00;100885.75;4973182;28;20023;-82
2023/03/03 06:53:55;;;;;;;26.92;12.48;;;;;;;0.22;100.00;100880.94;4973323;28;20023;-84
2023/03/03 06:56:22;;;;;;;28.20;11.70;;;;;;;0.21;100.00;100879.34;4957898;28;20023;-83
2023/03/03 06:58:48;;;;;;;23.35;11.27;;;;;;;0.21;100.00;100879.34;4975672;28;20044;-83
2023/03/03 07:01:16;;;;;;;35.42;12.15;;;;;;;0.31;100.00;100884.91;4976643;28;20543;-82
2023/03/03 07:03:42;;;;;;;29.25;12.05;;;;;;;0.37;100.00;100894.50;4976348;28;20026;-82
2023/03/03 07:06:28;;;;;;;40.50;14.55;;;;;;;0.41;100.00;100903.72;4975614;28;20077;-83
2023/03/03 07:08:56;;;;;;;34.05;13.05;;;;;;;0.38;100.00;100893.28;4991435;28;20023;-82
2023/03/03 07:11:23;;;;;;;37.67;12.13;;;;;;;0.45;100.00;100901.69;4975158;28;20456;-84
2023/03/03 07:13:53;;;;;;;29.95;12.30;;;;;;;0.43;100.00;100912.53;4976819;28;20039;-83
2023/03/03 07:16:24;;;;;;;26.00;12.27;;;;;;;0.40;100.00;100907.75;4977642;28;20457;-83
2023/03/03 07:18:54;;;;;;;38.25;14.00;;;;;;;0.35;100.00;100919.41;4966520;28;20030;-83
2023/03/03 07:21:35;;;;;;;32.88;12.90;;;;;;;0.52;100.00;100928.97;4980080;28;20037;-83
2023/03/03 07:24:23;;;;;;;30.35;11.05;;;;;;;0.40;100.00;100930.22;4978600;28;20034;-84
2023/03/03 07:26:48;;;;;;;24.13;10.77;;;;;;;0.42;100.00;100930.59;4981164;28;20045;-83
2023/03/03 07:29:27;;;;;;;21.92;10.45;;;;;;;0.38;100.00;100952.31;4976983;28;20023;-82
2023/03/03 07:31:54;;;;;;;24.92;10.82;;;;;;;0.37;100.00;100955.56;4974865;28;20031;-81
2023/03/03 07:34:29;;;;;;;31.80;11.10;;;;;;;0.39;100.00;100945.50;4975755;28;20480;-82
2023/03/03 07:36:58;;;;;;;31.33;11.23;;;;;;;0.32;100.00;100939.88;4975832;28;20050;-83
2023/03/03 07:39:34;;;;;;;31.27;11.95;;;;;;;0.32;100.00;100927.88;4976222;28;20023;-83
2023/03/03 07:42:15;;;;;;;35.08;11.70;;;;;;;0.32;100.00;100936.31;4974686;28;20061;-83
2023/03/03 07:44:41;;;;;;;30.27;12.30;;;;;;;0.21;100.00;100921.47;4974501;28;20055;-82
2023/03/03 07:47:15;;;;;;;29.15;12.05;;;;;;;0.35;100.00;100919.41;4975867;28;20125;-82
2023/03/03 07:49:42;;;;;;;35.60;13.30;;;;;;;0.45;100.00;100917.75;4974757;28;20136;-82
2023/03/03 07:52:38;;;;;;;35.80;13.27;;;;;;;0.56;100.00;100915.72;4975823;28;20034;-83
2023/03/03 07:55:40;;;;;;;35.22;13.02;;;;;;;0.75;100.00;100922.84;4975670;28;20074;-83
2023/03/03 07:58:15;;;;;;;37.38;13.75;;;;;;;0.83;100.00;100924.38;4974348;28;20388;-82
2023/03/03 08:01:18;;;;;;;40.90;15.95;;;;;;;0.91;100.00;100921.09;4975793;28;20042;-83
2023/03/03 08:03:45;;;;;;;34.47;13.43;;;;;;;0.97;100.00;100924.28;4975172;28;20065;-84
2023/03/03 08:06:31;;;;;;;42.35;12.90;;;;;;;0.96;100.00;100931.91;4974074;28;20031;-84
2023/03/03 08:09:15;;;;;;;34.28;12.82;;;;;;;0.97;100.00;100927.91;4975103;28;20085;-82
2023/03/03 08:11:49;;;;;;;37.90;12.43;;;;;;;1.05;100.00;100923.03;4974198;28;20031;-83
2023/03/03 08:14:28;;;;;;;32.05;11.75;;;;;;;1.07;100.00;100917.78;4975743;28;20400;-84
2023/03/03 08:16:55;;;;;;;33.47;14.00;;;;;;;1.15;100.00;100916.53;4975195;28;20031;-84
2023/03/03 08:19:21;;;;;;;35.55;14.07;;;;;;;1.35;100.00;100909.16;4975538;28;20404;-83
2023/03/03 08:21:46;;;;;;;38.17;14.30;;;;;;;1.37;100.00;100922.78;4974154;28;20484;-85
2023/03/03 08:24:12;;;;;;;37.75;14.13;;;;;;;1.43;100.00;100915.50;4975187;28;20440;-84
2023/03/03 08:26:37;;;;;;;34.97;14.48;;;;;;;1.29;100.00;100890.28;4975913;28;20106;-83
2023/03/03 08:29:02;;;;;;;38.20;15.48;;;;;;;1.41;100.00;100917.91;4976829;28;20479;-89
2023/03/03 08:31:28;;;;;;;44.78;16.45;;;;;;;1.39;100.00;100918.34;4996661;28;20027;-83
2023/03/03 08:33:54;;;;;;;40.38;17.35;;;;;;;1.51;100.00;100913.41;4990539;28;20027;-83
2023/03/03 08:36:19;;;;;;;32.13;13.65;;;;;;;1.50;100.00;100909.03;4982554;28;20055;-82
2023/03/03 08:38:45;;;;;;;32.60;14.30;;;;;;;1.51;100.00;100913.41;4985599;28;20031;-82
2023/03/03 08:41:11;;;;;;;32.47;13.38;;;;;;;1.50;100.00;100914.66;4992670;28;20130;-84
2023/03/03 08:43:36;;;;;;;36.20;13.90;;;;;;;1.40;100.00;100916.34;4987984;28;20457;-84
2023/03/03 08:46:04;;;;;;;27.08;13.30;;;;;;;1.47;100.00;100897.34;4980879;28;20030;-83
2023/03/03 08:48:31;;;;;;;29.70;12.07;;;;;;;1.63;100.00;100919.34;4975329;28;20030;-83
2023/03/03 08:50:57;;;;;;;29.20;14.77;;;;;;;1.73;100.00;100909.19;4959373;28;20043;-83
2023/03/03 08:53:25;;;;;;;35.88;15.57;;;;;;;1.65;100.00;100904.84;4974889;28;20038;-80
2023/03/03 08:55:50;;;;;;;35.83;15.05;;;;;;;1.74;100.00;100924.88;4973298;28;20047;-78
2023/03/03 08:58:25;;;;;;;33.22;14.82;;;;;;;1.78;100.00;100937.72;4974327;28;20035;-84
2023/03/03 09:00:51;;;;;;;33.63;16.15;;;;;;;1.77;100.00;100938.13;4974760;28;20038;-83
2023/03/03 09:03:18;;;;;;;32.97;14.73;;;;;;;1.71;100.00;100925.69;4973835;28;20022;-83
2023/03/03 09:05:46;;;;;;;34.47;15.63;;;;;;;1.78;100.00;100937.72;4974762;28;20391;-84
2023/03/03 09:08:12;;;;;;;35.22;15.50;;;;;;;1.86;100.00;100942.06;4975074;28;20027;-83
2023/03/03 09:10:40;;;;;;;30.10;12.80;;;;;;;1.86;100.00;100936.41;4974477;28;20168;-81
2023/03/03 09:13:17;;;;;;;35.80;15.02;;;;;;;1.81;100.00;100921.97;4942695;28;20070;-80
2023/03/03 09:15:44;;;;;;;33.45;13.73;;;;;;;1.86;100.00;100938.44;4957169;28;20031;-84
2023/03/03 09:18:15;;;;;;;32.72;13.98;;;;;;;1.92;100.00;100937.56;4941846;28;20043;-78
2023/03/03 09:20:47;;;;;;;26.90;14.23;;;;;;;1.68;100.00;100899.19;4956746;28;20050;-76
2023/03/03 09:23:38;;;;;;;27.25;12.20;;;;;;;2.09;100.00;100946.25;4956632;28;20023;-76
2023/03/03 09:26:29;;;;;;;33.83;15.57;;;;;;;1.99;100.00;100950.00;4974070;28;20118;-78
2023/03/03 09:29:24;;;;;;;37.22;15.60;;;;;;;1.89;100.00;100948.88;4976576;28;20046;-79
2023/03/03 09:31:53;;;;;;;35.03;14.65;;;;;;;1.94;100.00;100953.25;4977004;28;20499;-76
2023/03/03 09:34:41;;;;;;;32.95;15.98;;;;;;;1.81;100.00;100959.41;4977927;28;20058;-75
2023/03/03 09:37:28;;;;;;;34.72;15.52;;;;;;;1.75;100.00;100963.88;4960534;28;20074;-79
2023/03/03 09:39:54;;;;;;;33.17;15.70;;;;;;;1.71;100.00;100968.75;4977958;28;20049;-75
2023/03/03 09:42:41;;;;;;;36.17;16.70;;;;;;;1.75;100.00;100963.09;4977615;28;20365;-77
2023/03/03 09:45:43;;;;;;;33.75;16.50;;;;;;;1.85;100.00;100962.19;4977516;28;20042;-76
2023/03/03 09:48:21;;;;;;;32.60;14.55;;;;;;;1.98;100.00;100968.13;4969643;28;20038;-75
2023/03/03 09:50:59;;;;;;;38.60;15.23;;;;;;;2.02;100.00;100960.41;4977582;28;20109;-74
2023/03/03 09:53:46;;;;;;;34.22;16.23;;;;;;;2.07;100.00;100962.78;4959963;28;20053;-75
2023/03/03 09:56:48;;;;;;;36.28;15.55;;;;;;;2.06;100.00;100964.00;4977261;28;20110;-75
2023/03/03 09:59:38;;;;;;;34.60;16.00;;;;;;;2.15;100.00;100967.13;4973009;28;20043;-76
2023/03/03 10:02:46;;;;;;;34.20;15.13;;;;;;;2.14;100.00;100965.53;4940695;29;20492;-75
2023/03/03 10:05:32;;;;;;;32.50;16.38;;;;;;;2.22;100.00;100973.50;4912194;28;20361;-79
2023/03/03 10:08:44;;;;;;;31.83;15.52;;;;;;;2.13;100.00;100970.38;4959945;28;20155;-77
2023/03/03 10:11:29;;;;;;;32.17;13.82;;;;;;;2.18;100.00;100978.38;4976931;28;20037;-80
2023/03/03 10:14:06;;;;;;;32.40;15.70;;;;;;;2.25;100.00;100967.00;4977140;28;20037;-76
2023/03/03 10:16:42;;;;;;;38.47;16.25;;;;;;;2.43;100.00;100960.38;4977233;28;20031;-76
2023/03/03 10:19:52;;;;;;;34.38;14.95;;;;;;;2.58;100.00;100967.44;4959642;28;20031;-77
2023/03/03 10:22:19;;;;;;;29.50;13.93;;;;;;;2.58;100.00;100973.88;4936154;29;20039;-78
2023/03/03 10:25:03;;;;;;;33.65;14.80;;;;;;;2.63;100.00;100967.78;4958386;29;20031;-88
2023/03/03 10:27:49;;;;;;;26.55;12.50;;;;;;;2.70;100.00;100966.88;4941582;29;20031;-84
2023/03/03 10:30:53;;;;;;;31.08;13.18;;;;;;;2.75;100.00;100960.75;4957967;29;20034;-76
2023/03/03 10:33:59;;;;;;;30.95;14.05;;;;;;;2.74;100.00;100961.97;4957419;28;20034;-77
2023/03/03 10:36:48;;;;;;;29.63;12.40;;;;;;;2.68;100.00;100956.03;4932266;29;20083;-77
2023/03/03 10:39:29;;;;;;;33.13;13.70;;;;;;;2.77;100.00;100963.97;4957524;28;20074;-76
2023/03/03 10:42:25;;;;;;;29.40;13.57;;;;;;;2.86;100.00;100966.25;4957494;29;20507;-77
2023/03/03 10:45:01;;;;;;;33.30;12.57;;;;;;;2.83;100.00;100959.47;4936986;29;20043;-77
2023/03/03 10:47:45;;;;;;;30.65;14.35;;;;;;;2.80;100.00;100957.47;4957536;29;20427;-76
2023/03/03 10:50:14;;;;;;;30.33;14.18;;;;;;;2.85;100.00;100956.19;4957128;29;20027;-76
2023/03/03 10:52:51;;;;;;;26.45;13.13;;;;;;;2.89;100.00;100945.66;4956975;29;20469;-76
2023/03/03 10:55:20;;;;;;;24.60;12.98;;;;;;;3.09;100.00;100947.38;4957227;29;20035;-76
2023/03/03 10:58:08;;;;;;;31.85;12.52;;;;;;;3.12;100.00;100943.72;4956793;29;20031;-77
2023/03/03 11:00:53;;;;;;;28.60;13.13;;;;;;;3.13;100.00;100950.16;4956749;29;20035;-75
2023/03/03 11:03:48;;;;;;;29.05;13.65;;;;;;;3.11;100.00;100944.94;4956280;29;20038;-78
2023/03/03 11:06:42;;;;;;;32.30;14.70;;;;;;;2.97;100.00;100945.16;4956818;29;20039;-77
2023/03/03 11:09:36;;;;;;;25.80;13.30;;;;;;;2.98;100.00;100945.94;4939672;29;20038;-78
2023/03/03 11:12:21;;;;;;;32.85;13.35;;;;;;;3.13;100.00;100930.41;4956984;29;20042;-77
2023/03/03 11:15:09;;;;;;;28.65;14.40;;;;;;;3.09;100.00;100924.78;4956500;29;20035;-79
2023/03/03 11:18:15;;;;;;;30.23;14.30;;;;;;;3.08;100.00;100919.59;4956534;29;20034;-82
2023/03/03 11:21:01;;;;;;;25.33;11.70;;;;;;;3.11;100.00;100922.34;4897817;29;20040;-82
2023/03/03 11:23:39;;;;;;;30.98;13.27;;;;;;;3.07;100.00;100927.25;4955912;29;20050;-81
2023/03/03 11:26:40;;;;;;;33.38;13.32;;;;;;;3.13;100.00;100927.56;4956769;29;20472;-83
2023/03/03 11:29:16;;;;;;;29.98;12.45;;;;;;;3.04;100.00;100930.91;4957937;28;20034;-85
2023/03/03 11:32:09;;;;;;;29.63;12.80;;;;;;;3.00;100.00;100940.66;4956774;29;20491;-83